CheckWX is a tool to help pilots better visualize weather data.  It is not intended as a substitute for an official pre-flight weather briefing.

04:25:07 UTC

KSNC METAR
Chester Airport
Chester, Connecticut, USA
Current

1 hour ago

KSNC 250315Z AUTO 36007KT 10SM CLR 09/02 A2989 RMK AO2
Observed
Apr-25 @ 03:15 UTC
Wind
  • 360° at 7 KTS
Visibility
10 SM
Flight Rules
VFR
Cloud Levels
  • Clear skies
Temperature
C / 48°F
Dewpoint
C / 36°F
Humidity
62%
Altimeter
29.89" Hg
Pressure
1012.22 hPa
Previous

2 hours ago

KSNC 250255Z AUTO 36010KT 10SM CLR 10/02 A2989 RMK AO2
Observed
Apr-25 @ 02:55 UTC
Wind
  • 360° at 10 KTS
Visibility
10 SM
Flight Rules
VFR
Cloud Levels
  • Clear skies
Temperature
10°C / 50°F
Dewpoint
C / 36°F
Humidity
58%
Altimeter
29.89" Hg
Pressure
1012.22 hPa
Previous

2 hours ago

KSNC 250235Z AUTO 35010KT 10SM CLR 10/03 A2988 RMK AO2
Observed
Apr-25 @ 02:35 UTC
Wind
  • 350° at 10 KTS
Visibility
10 SM
Flight Rules
VFR
Cloud Levels
  • Clear skies
Temperature
10°C / 50°F
Dewpoint
C / 37°F
Humidity
62%
Altimeter
29.88" Hg
Pressure
1011.82 hPa